EDDR/SCN METAR and TAF weather

Enter ICAO airport designator
Station Type Date Time Source
EDDR METAR 2022/06/25 22:50 UTC NOAA

EDDR 252250Z AUTO 29003KT CAVOK 16/16 Q1014


Station Type Date Time Source
EDDR Decoded METAR 2022/06/25 22:50 UTC NOAA

Saarbruecken / Ensheim, Germany (EDDR) 49-13N 007-07E 320M
Jun 25, 2022 - 06:50 PM EDT / 2022.06.25 2250 UTC
Wind: from the WNW (290 degrees) at 3 MPH (3 KT):0
Visibility: greater than 7 mile(s):0
Temperature: 60 F (16 C)
Dew Point: 60 F (16 C)
Relative Humidity: 100%
Pressure (altimeter): 29.94 in. Hg (1014 hPa)
ob: EDDR 252250Z AUTO 29003KT CAVOK 16/16 Q1014
cycle: 23

Station Type Date Time Source
EDDR TAF 2022/06/25 20:55 UTC NOAA

TAF
AMD EDDR 252043Z 2520/2618 23007KT 9999 FEW030
TEMPO 2520/2524 SHRA BKN050CB PROB40
TEMPO 2520/2524 25020G35KT 3000 TSRA BKN010 BKN025CB
TEMPO 2606/2612 4000 SHRA BKN014 BKN050CB
BECMG 2611/2614 33005KT PROB30
TEMPO 2612/2618 4000 TSRA BKN014 BKN050CB

Example: see airport list